createdAt,value
2023-03-19T00:00:54.909Z,12.96
2023-03-19T00:02:34.674Z,12.95
2023-03-19T00:04:14.452Z,12.95
2023-03-19T00:05:54.169Z,12.95
2023-03-19T00:07:33.958Z,12.95
2023-03-19T00:09:13.702Z,12.95
2023-03-19T00:10:53.471Z,12.95
2023-03-19T00:12:33.241Z,12.95
2023-03-19T00:14:13.007Z,12.95
2023-03-19T00:15:52.772Z,12.95
2023-03-19T00:17:32.527Z,12.95
2023-03-19T00:19:12.291Z,12.95
2023-03-19T00:20:52.057Z,12.95
2023-03-19T00:22:31.833Z,12.95
2023-03-19T00:24:11.585Z,12.95
2023-03-19T00:25:51.462Z,12.95
2023-03-19T00:27:31.147Z,12.95
2023-03-19T00:29:10.937Z,12.94
2023-03-19T00:30:50.712Z,12.94
2023-03-19T00:32:30.411Z,12.95
2023-03-19T00:34:10.178Z,12.94
2023-03-19T00:35:49.919Z,12.93
2023-03-19T00:37:29.744Z,12.93
2023-03-19T00:39:09.457Z,12.93
2023-03-19T00:40:49.287Z,12.93
2023-03-19T00:42:28.972Z,12.93
2023-03-19T00:44:08.745Z,12.94
2023-03-19T00:45:48.498Z,12.94
2023-03-19T00:47:28.349Z,12.94
2023-03-19T00:49:08.098Z,12.94
2023-03-19T00:50:47.812Z,12.94
2023-03-19T00:52:27.616Z,12.94
2023-03-19T00:54:07.334Z,12.92
2023-03-19T00:55:47.107Z,12.94
2023-03-19T00:57:26.869Z,12.92
2023-03-19T00:59:06.652Z,12.92
2023-03-19T01:00:46.517Z,12.93
2023-03-19T01:02:26.136Z,12.93
2023-03-19T01:04:05.926Z,12.93
2023-03-19T01:05:45.676Z,12.92
2023-03-19T01:07:25.447Z,12.92
2023-03-19T01:09:05.212Z,12.92
2023-03-19T01:10:44.970Z,12.92
2023-03-19T01:12:24.724Z,12.92
2023-03-19T01:14:04.576Z,12.92
2023-03-19T01:15:44.323Z,12.92
2023-03-19T01:17:24.032Z,12.92
2023-03-19T01:19:03.869Z,12.92
2023-03-19T01:20:43.627Z,12.92
2023-03-19T01:22:23.382Z,12.92
2023-03-19T01:24:03.097Z,12.92
2023-03-19T01:25:42.867Z,12.92
2023-03-19T01:27:22.619Z,12.92
2023-03-19T01:29:02.367Z,12.92
2023-03-19T01:30:42.168Z,12.92
2023-03-19T01:32:21.909Z,12.92
2023-03-19T01:34:01.689Z,12.92
2023-03-19T01:35:41.453Z,12.9
2023-03-19T01:37:21.192Z,12.9
2023-03-19T01:39:00.964Z,12.91
2023-03-19T01:40:40.727Z,12.91
2023-03-19T01:42:20.545Z,12.92
2023-03-19T01:44:00.303Z,12.91
2023-03-19T01:45:40.017Z,12.91
2023-03-19T01:47:19.853Z,12.91
2023-03-19T01:48:59.529Z,12.91
2023-03-19T01:50:39.378Z,12.91
2023-03-19T01:52:19.131Z,12.91
2023-03-19T01:53:58.822Z,12.89
2023-03-19T01:55:38.586Z,12.9
2023-03-19T01:57:18.365Z,12.9
2023-03-19T01:58:58.134Z,12.9
2023-03-19T02:00:37.894Z,12.9
2023-03-19T02:02:17.659Z,12.9
2023-03-19T02:03:57.528Z,12.9
2023-03-19T02:05:37.167Z,12.9
2023-03-19T02:07:17.003Z,12.9
2023-03-19T02:08:56.745Z,12.89
2023-03-19T02:10:36.493Z,12.89
2023-03-19T02:12:16.225Z,12.89
2023-03-19T02:13:56.056Z,12.89
2023-03-19T02:15:35.740Z,12.89
2023-03-19T02:17:15.541Z,12.89
2023-03-19T02:18:55.276Z,12.89
2023-03-19T02:20:35.070Z,12.89
2023-03-19T02:22:14.810Z,12.89
2023-03-19T02:23:54.565Z,12.89
2023-03-19T02:25:34.355Z,12.89
2023-03-19T02:27:14.127Z,12.9
2023-03-19T02:28:53.888Z,12.89
2023-03-19T02:30:33.647Z,12.89
2023-03-19T02:32:13.394Z,12.89
2023-03-19T02:33:53.167Z,12.89
2023-03-19T02:35:32.961Z,12.87
2023-03-19T02:37:12.691Z,12.89
2023-03-19T02:38:52.451Z,12.88
2023-03-19T02:40:32.218Z,12.89
2023-03-19T02:42:11.964Z,12.88
2023-03-19T02:43:51.727Z,12.88
2023-03-19T02:45:31.516Z,12.88
2023-03-19T02:47:11.297Z,12.88
2023-03-19T02:48:51.049Z,12.88
2023-03-19T02:50:30.799Z,12.88
2023-03-19T02:52:10.581Z,12.88
2023-03-19T02:53:50.361Z,12.88
2023-03-19T02:55:30.081Z,12.88
2023-03-19T02:57:09.930Z,12.88
2023-03-19T02:58:49.616Z,12.88
2023-03-19T03:00:29.382Z,12.88
2023-03-19T03:02:09.146Z,12.88
2023-03-19T03:03:48.934Z,12.88
2023-03-19T03:05:28.669Z,12.86
2023-03-19T03:07:08.505Z,12.87
2023-03-19T03:08:48.205Z,12.87
2023-03-19T03:10:27.973Z,12.87
2023-03-19T03:12:07.731Z,12.87
2023-03-19T03:13:47.502Z,12.87
2023-03-19T03:15:27.262Z,12.87
2023-03-19T03:17:07.040Z,12.87
2023-03-19T03:18:46.832Z,12.87
2023-03-19T03:20:26.579Z,12.87
2023-03-19T03:22:06.382Z,12.87
2023-03-19T03:23:46.084Z,12.87
2023-03-19T03:25:25.861Z,12.87
2023-03-19T03:27:05.638Z,12.87
2023-03-19T03:28:45.378Z,12.85
2023-03-19T03:30:25.126Z,12.87
2023-03-19T03:32:04.900Z,12.85
2023-03-19T03:33:44.677Z,12.85
2023-03-19T03:35:24.438Z,12.86
2023-03-19T03:37:04.184Z,12.86
2023-03-19T03:38:43.979Z,12.86
2023-03-19T03:40:23.758Z,12.86
2023-03-19T03:42:03.505Z,12.86
2023-03-19T03:43:43.244Z,12.87
2023-03-19T03:45:23.023Z,12.86
2023-03-19T03:47:02.773Z,12.84
2023-03-19T03:48:42.540Z,12.86
2023-03-19T03:50:22.307Z,12.86
2023-03-19T03:52:02.061Z,12.86
2023-03-19T03:53:41.827Z,12.86
2023-03-19T03:55:21.626Z,12.84
2023-03-19T03:57:01.357Z,12.86
2023-03-19T03:58:41.124Z,12.85
2023-03-19T04:00:20.904Z,12.85
2023-03-19T04:02:00.661Z,12.85
2023-03-19T04:03:40.405Z,12.85
2023-03-19T04:05:20.174Z,12.85
2023-03-19T04:06:59.953Z,12.85
2023-03-19T04:08:39.697Z,12.85
2023-03-19T04:10:19.510Z,12.85
2023-03-19T04:11:59.303Z,12.85
2023-03-19T04:13:39.030Z,12.85
2023-03-19T04:15:18.781Z,12.85
2023-03-19T04:16:58.519Z,12.85
2023-03-19T04:18:38.312Z,12.83
2023-03-19T04:20:18.043Z,12.84
2023-03-19T04:21:57.817Z,12.84
2023-03-19T04:23:37.593Z,12.83
2023-03-19T04:25:17.418Z,12.84
2023-03-19T04:26:57.131Z,12.83
2023-03-19T04:28:36.886Z,12.84
2023-03-19T04:30:16.675Z,12.83
2023-03-19T04:31:56.411Z,12.83
2023-03-19T04:33:36.182Z,12.83
2023-03-19T04:35:15.928Z,12.85
2023-03-19T04:36:55.710Z,12.84
2023-03-19T04:38:35.466Z,12.84
2023-03-19T04:40:15.273Z,12.84
2023-03-19T04:41:54.984Z,12.84
2023-03-19T04:43:34.744Z,12.84
2023-03-19T04:45:14.525Z,12.84
2023-03-19T04:46:54.269Z,12.84
2023-03-19T04:48:34.035Z,12.85
2023-03-19T04:50:13.787Z,12.84
2023-03-19T04:51:53.567Z,12.82
2023-03-19T04:53:33.346Z,12.83
2023-03-19T04:55:13.109Z,12.83
2023-03-19T04:56:52.853Z,12.83
2023-03-19T04:58:32.625Z,12.83
2023-03-19T05:00:12.381Z,12.84
2023-03-19T05:01:52.162Z,12.83
2023-03-19T05:03:31.911Z,12.84
2023-03-19T05:05:11.676Z,12.83
2023-03-19T05:06:51.485Z,12.83
2023-03-19T05:08:31.185Z,12.83
2023-03-19T05:10:10.955Z,12.83
2023-03-19T05:11:50.780Z,12.83
2023-03-19T05:13:30.498Z,12.83
2023-03-19T05:15:10.265Z,12.83
2023-03-19T05:16:50.026Z,12.83
2023-03-19T05:18:29.835Z,12.83
2023-03-19T05:20:09.546Z,12.83
2023-03-19T05:21:49.316Z,12.81
2023-03-19T05:23:29.079Z,12.81
2023-03-19T05:25:08.848Z,12.81
2023-03-19T05:26:48.657Z,12.83
2023-03-19T05:28:28.362Z,12.83
2023-03-19T05:30:08.133Z,12.83
2023-03-19T05:31:47.895Z,12.84
2023-03-19T05:33:27.659Z,12.84
2023-03-19T05:35:07.428Z,12.84
2023-03-19T05:36:47.203Z,12.84
2023-03-19T05:38:26.943Z,12.84
2023-03-19T05:40:06.734Z,12.83
2023-03-19T05:41:46.487Z,12.82
2023-03-19T05:43:26.235Z,12.85
2023-03-19T05:45:06.066Z,12.86
2023-03-19T05:46:45.760Z,12.85
2023-03-19T05:48:25.535Z,12.86
2023-03-19T05:50:05.310Z,12.86
2023-03-19T05:51:45.062Z,12.87
2023-03-19T05:53:24.823Z,12.89
2023-03-19T05:55:04.576Z,12.9
2023-03-19T05:56:44.371Z,12.91
2023-03-19T05:58:24.116Z,12.94
2023-03-19T06:00:03.892Z,13
2023-03-19T06:01:43.638Z,13.04
2023-03-19T06:03:23.414Z,13.08
2023-03-19T06:05:03.179Z,13.13
2023-03-19T06:06:42.952Z,13.18
2023-03-19T06:08:22.699Z,13.25
2023-03-19T06:10:02.473Z,13.3
2023-03-19T06:11:42.299Z,13.36
2023-03-19T06:13:22.007Z,13.42
2023-03-19T06:15:01.799Z,13.51
2023-03-19T06:16:41.519Z,13.55
2023-03-19T06:18:21.271Z,13.56
2023-03-19T06:20:01.039Z,13.61
2023-03-19T06:21:40.872Z,13.66
2023-03-19T06:23:20.722Z,13.69
2023-03-19T06:25:00.337Z,13.74
2023-03-19T06:26:40.254Z,13.79
2023-03-19T06:28:19.932Z,13.84
2023-03-19T06:29:59.628Z,13.92
2023-03-19T06:31:39.395Z,13.98
2023-03-19T06:33:19.159Z,14.05
2023-03-19T06:34:58.913Z,14.08
2023-03-19T06:36:38.729Z,14.12
2023-03-19T06:38:18.452Z,14.13
2023-03-19T06:39:58.224Z,14.17
2023-03-19T06:41:38.011Z,14.2
2023-03-19T06:43:17.815Z,14.23
2023-03-19T06:44:57.500Z,14.25
2023-03-19T06:46:37.262Z,14.48
2023-03-19T06:48:17.023Z,14.58
2023-03-19T06:49:56.787Z,14.64
2023-03-19T06:51:36.571Z,14.65
2023-03-19T06:53:16.339Z,14.67
2023-03-19T06:54:56.106Z,14.71
2023-03-19T06:56:35.894Z,14.68
2023-03-19T06:58:15.619Z,14.67
2023-03-19T06:59:55.467Z,14.68
2023-03-19T07:01:35.199Z,14.72
2023-03-19T07:03:14.976Z,14.73
2023-03-19T07:04:54.705Z,14.68
2023-03-19T07:06:34.461Z,14.63
2023-03-19T07:08:14.245Z,14.64
2023-03-19T07:09:54.040Z,14.68
2023-03-19T07:11:33.740Z,14.77
2023-03-19T07:13:13.554Z,14.78
2023-03-19T07:14:53.303Z,14.73
2023-03-19T07:16:33.035Z,14.73
2023-03-19T07:18:12.818Z,14.72
2023-03-19T07:19:52.566Z,14.63
2023-03-19T07:21:32.335Z,14.61
2023-03-19T07:23:12.120Z,14.41
2023-03-19T07:24:51.959Z,14.23
2023-03-19T07:26:31.658Z,14.11
2023-03-19T07:28:11.400Z,14.07
2023-03-19T07:29:51.150Z,14.06
2023-03-19T07:31:30.935Z,13.99
2023-03-19T07:33:10.696Z,14
2023-03-19T07:34:50.447Z,14.04
2023-03-19T07:36:30.221Z,14.12
2023-03-19T07:38:09.979Z,14.27
2023-03-19T07:39:49.804Z,14.54
2023-03-19T07:41:29.606Z,14.28
2023-03-19T07:43:09.262Z,14.77
2023-03-19T07:44:49.154Z,14.67
2023-03-19T07:46:28.811Z,14.74
2023-03-19T07:48:08.552Z,14.63
2023-03-19T07:49:48.368Z,14.69
2023-03-19T07:51:28.189Z,14.65
2023-03-19T07:53:08.020Z,14.67
2023-03-19T07:54:47.752Z,14.71
2023-03-19T07:56:27.522Z,14.74
2023-03-19T07:58:07.320Z,14.64
2023-03-19T07:59:47.017Z,14.69
2023-03-19T08:01:26.707Z,14.72
2023-03-19T08:03:06.437Z,14.64
2023-03-19T08:04:46.248Z,14.65
2023-03-19T08:06:25.959Z,14.69
2023-03-19T08:08:05.729Z,14.72
2023-03-19T08:09:45.498Z,14.68
2023-03-19T08:11:25.330Z,14.62
2023-03-19T08:13:05.091Z,14.69
2023-03-19T08:14:44.788Z,14.7
2023-03-19T08:16:24.537Z,14.65
2023-03-19T08:18:04.374Z,14.59
2023-03-19T08:19:44.079Z,14.65
2023-03-19T08:21:23.821Z,14.61
2023-03-19T08:23:03.617Z,14.6
2023-03-19T08:24:43.350Z,14.72
2023-03-19T08:26:23.112Z,14.64
2023-03-19T08:28:02.879Z,14.61
2023-03-19T08:29:42.645Z,14.62
2023-03-19T08:31:22.405Z,14.65
2023-03-19T08:33:02.260Z,14.75
2023-03-19T08:34:41.966Z,14.74
2023-03-19T08:36:21.774Z,14.65
2023-03-19T08:38:01.480Z,14.59
2023-03-19T08:39:41.230Z,14.6
2023-03-19T08:41:20.997Z,14.59
2023-03-19T08:43:00.775Z,14.62
2023-03-19T08:44:40.518Z,14.65
2023-03-19T08:46:20.356Z,14.58
2023-03-19T08:48:00.042Z,14.62
2023-03-19T08:49:39.848Z,14.1
2023-03-19T08:51:19.583Z,13.9
2023-03-19T08:52:59.338Z,13.78
2023-03-19T08:54:39.214Z,13.67
2023-03-19T08:56:18.924Z,13.61
2023-03-19T08:57:58.696Z,13.51
2023-03-19T08:59:38.411Z,13.49
2023-03-19T09:01:18.185Z,13.43
2023-03-19T09:02:57.931Z,13.4
2023-03-19T09:04:37.677Z,13.38
2023-03-19T09:06:17.446Z,13.32
2023-03-19T09:07:57.280Z,13.31
2023-03-19T09:09:36.983Z,13.32
2023-03-19T09:11:16.745Z,13.27
2023-03-19T09:12:56.531Z,13.27
2023-03-19T09:14:36.310Z,13.26
2023-03-19T09:16:16.046Z,13.24
2023-03-19T09:17:55.809Z,13.25
2023-03-19T09:19:35.697Z,13.25
2023-03-19T09:21:15.349Z,13.25
2023-03-19T09:22:55.079Z,13.26
2023-03-19T09:24:34.870Z,13.32
2023-03-19T09:26:14.631Z,13.32
2023-03-19T09:27:54.393Z,13.35
2023-03-19T09:29:34.155Z,13.4
2023-03-19T09:31:13.922Z,13.46
2023-03-19T09:32:53.683Z,13.55
2023-03-19T09:34:33.426Z,13.6
2023-03-19T09:36:13.221Z,13.61
2023-03-19T09:37:52.961Z,13.63
2023-03-19T09:39:32.742Z,13.61
2023-03-19T09:41:12.488Z,13.6
2023-03-19T09:42:52.264Z,13.59
2023-03-19T09:44:32.020Z,13.58
2023-03-19T09:46:11.812Z,13.59
2023-03-19T09:47:51.599Z,13.6
2023-03-19T09:49:31.320Z,13.59
2023-03-19T09:51:11.085Z,13.59
2023-03-19T09:52:50.849Z,13.61
2023-03-19T09:54:30.603Z,14.09
2023-03-19T09:56:10.436Z,13.71
2023-03-19T09:57:50.120Z,13.7
2023-03-19T09:59:29.897Z,13.69
2023-03-19T10:01:09.672Z,13.83
2023-03-19T10:02:49.430Z,15.3
2023-03-19T10:04:29.195Z,14.61
2023-03-19T10:06:08.974Z,14.62
2023-03-19T10:07:48.757Z,14.69
2023-03-19T10:09:28.475Z,14.74
2023-03-19T10:11:08.246Z,14.62
2023-03-19T10:12:48.083Z,14.6
2023-03-19T10:14:27.814Z,14.67
2023-03-19T10:16:07.546Z,14.75
2023-03-19T10:17:47.309Z,14.74
2023-03-19T10:19:27.268Z,14.61
2023-03-19T10:21:06.845Z,14.64
2023-03-19T10:22:46.646Z,14.63
2023-03-19T10:24:26.475Z,14.61
2023-03-19T10:26:06.135Z,14.63
2023-03-19T10:27:45.900Z,14.64
2023-03-19T10:29:25.660Z,14.67
2023-03-19T10:31:05.415Z,14.6
2023-03-19T10:32:45.219Z,14.75
2023-03-19T10:34:24.981Z,14.61
2023-03-19T10:36:04.810Z,14.73
2023-03-19T10:37:44.618Z,14.7
2023-03-19T10:39:24.272Z,14.63
2023-03-19T10:41:04.020Z,14.67
2023-03-19T10:42:43.804Z,14.64
2023-03-19T10:44:23.546Z,14.65
2023-03-19T10:46:03.319Z,14.61
2023-03-19T10:47:43.245Z,14.63
2023-03-19T10:49:22.822Z,14.64
2023-03-19T10:51:02.580Z,14.63
2023-03-19T10:52:42.372Z,14.65
2023-03-19T10:54:22.139Z,14.62
2023-03-19T10:56:01.862Z,14.63
2023-03-19T10:57:41.641Z,14.66
2023-03-19T10:59:21.406Z,14.61
2023-03-19T11:01:01.168Z,14.67
2023-03-19T11:02:40.938Z,14.67
2023-03-19T11:04:20.694Z,14.68
2023-03-19T11:06:00.460Z,14.72
2023-03-19T11:07:40.207Z,14.68
2023-03-19T11:09:20.037Z,14.63
2023-03-19T11:10:59.762Z,13.73
2023-03-19T11:12:39.580Z,13.98
2023-03-19T11:14:19.386Z,14.15
2023-03-19T11:15:59.039Z,13.98
2023-03-19T11:17:38.793Z,14.04
2023-03-19T11:19:18.567Z,14.14
2023-03-19T11:20:58.345Z,13.98
2023-03-19T11:22:38.113Z,14.13
2023-03-19T11:24:17.860Z,14.02
2023-03-19T11:25:57.686Z,14.07
2023-03-19T11:27:37.465Z,13.98
2023-03-19T11:29:17.146Z,14.03
2023-03-19T11:30:56.954Z,14.14
2023-03-19T11:32:36.687Z,14.01
2023-03-19T11:34:16.434Z,14.01
2023-03-19T11:35:56.291Z,14
2023-03-19T11:37:35.995Z,14.01
2023-03-19T11:39:15.716Z,13.99
2023-03-19T11:40:55.519Z,13.99
2023-03-19T11:42:35.294Z,14.01
2023-03-19T11:44:15.047Z,14.05
2023-03-19T11:45:54.776Z,14.03
2023-03-19T11:47:34.610Z,14.02
2023-03-19T11:49:14.335Z,13.98
2023-03-19T11:50:54.074Z,14.09
2023-03-19T11:52:34.149Z,14.11
2023-03-19T11:54:13.610Z,14.01
2023-03-19T11:55:53.387Z,14.1
2023-03-19T11:57:33.205Z,13.99
2023-03-19T11:59:12.903Z,14.13
2023-03-19T12:00:52.657Z,14.08
2023-03-19T12:02:32.432Z,14.08
2023-03-19T12:04:12.191Z,14.03
2023-03-19T12:05:51.949Z,14.08
2023-03-19T12:07:31.718Z,13.96
2023-03-19T12:09:11.552Z,13.97
2023-03-19T12:10:51.283Z,13.99
2023-03-19T12:12:31.104Z,14.01
2023-03-19T12:14:10.865Z,13.98
2023-03-19T12:15:50.564Z,14.06
2023-03-19T12:17:30.324Z,13.97
2023-03-19T12:19:10.135Z,14.05
2023-03-19T12:20:49.855Z,14.06
2023-03-19T12:22:29.596Z,14.05
2023-03-19T12:24:09.355Z,14.03
2023-03-19T12:25:49.129Z,13.96
2023-03-19T12:27:28.906Z,13.96
2023-03-19T12:29:08.658Z,14.13
2023-03-19T12:30:48.405Z,14.09
2023-03-19T12:32:28.195Z,14
2023-03-19T12:34:07.932Z,13.99
2023-03-19T12:35:47.704Z,14.02
2023-03-19T12:37:27.467Z,13.97
2023-03-19T12:39:07.268Z,14.13
2023-03-19T12:40:47.005Z,13.99
2023-03-19T12:42:26.762Z,13.98
2023-03-19T12:44:06.637Z,13.97
2023-03-19T12:45:46.286Z,13.98
2023-03-19T12:47:26.102Z,13.99
2023-03-19T12:49:05.804Z,14
2023-03-19T12:50:45.596Z,14.02
2023-03-19T12:52:25.488Z,14
2023-03-19T12:54:05.091Z,14.1
2023-03-19T12:55:44.862Z,13.95
2023-03-19T12:57:24.633Z,13.97
2023-03-19T12:59:04.413Z,14.04
2023-03-19T13:00:44.317Z,14.09
2023-03-19T13:02:23.937Z,13.99
2023-03-19T13:04:03.700Z,13.94
2023-03-19T13:05:43.540Z,14.05
2023-03-19T13:07:23.208Z,14.02
2023-03-19T13:09:03.075Z,14.06
2023-03-19T13:10:42.761Z,13.97
2023-03-19T13:12:22.569Z,13.96
2023-03-19T13:14:02.291Z,13.97
2023-03-19T13:15:42.070Z,13.92
2023-03-19T13:17:21.847Z,13.97
2023-03-19T13:19:01.694Z,13.94
2023-03-19T13:20:41.321Z,13.95
2023-03-19T13:22:21.102Z,14.01
2023-03-19T13:24:00.855Z,13.96
2023-03-19T13:25:40.642Z,14.04
2023-03-19T13:27:20.480Z,14.04
2023-03-19T13:29:00.145Z,14.02
2023-03-19T13:30:39.916Z,13.94
2023-03-19T13:32:19.689Z,14
2023-03-19T13:33:59.437Z,13.98
2023-03-19T13:35:39.218Z,13.95
2023-03-19T13:37:18.988Z,13.98
2023-03-19T13:38:58.731Z,13.95
2023-03-19T13:40:38.500Z,13.93
2023-03-19T13:42:18.253Z,13.97
2023-03-19T13:43:58.029Z,14.08
2023-03-19T13:45:37.802Z,14.05
2023-03-19T13:47:17.543Z,13.95
2023-03-19T13:48:57.367Z,13.92
2023-03-19T13:50:37.190Z,13.94
2023-03-19T13:52:16.911Z,13.99
2023-03-19T13:53:56.635Z,13.92
2023-03-19T13:55:36.468Z,14.01
2023-03-19T13:57:16.135Z,13.97
2023-03-19T13:58:55.900Z,13.94
2023-03-19T14:00:35.654Z,13.94
2023-03-19T14:02:15.422Z,13.94
2023-03-19T14:03:55.201Z,13.93
2023-03-19T14:05:34.978Z,14
2023-03-19T14:07:14.776Z,13.92
2023-03-19T14:08:54.508Z,14.02
2023-03-19T14:10:34.257Z,14.02
2023-03-19T14:12:14.025Z,14
2023-03-19T14:13:53.785Z,14.01
2023-03-19T14:15:33.553Z,14.08
2023-03-19T14:17:13.292Z,13.97
2023-03-19T14:18:53.113Z,13.98
2023-03-19T14:20:32.856Z,14.04
2023-03-19T14:22:12.640Z,14
2023-03-19T14:23:52.391Z,14
2023-03-19T14:25:32.193Z,13.97
2023-03-19T14:27:11.918Z,14.02
2023-03-19T14:28:51.671Z,14
2023-03-19T14:30:31.411Z,13.92
2023-03-19T14:32:11.207Z,14.06
2023-03-19T14:33:50.939Z,13.92
2023-03-19T14:35:30.823Z,14
2023-03-19T14:37:10.483Z,14.1
2023-03-19T14:38:50.287Z,14.08
2023-03-19T14:40:30.040Z,14.07
2023-03-19T14:42:09.761Z,13.98
2023-03-19T14:43:49.528Z,14.02
2023-03-19T14:45:29.292Z,14.07
2023-03-19T14:47:09.053Z,13.97
2023-03-19T14:48:48.837Z,14.04
2023-03-19T14:50:28.572Z,13.95
2023-03-19T14:52:08.399Z,14.03
2023-03-19T14:53:48.108Z,13.93
2023-03-19T14:55:27.871Z,13.95
2023-03-19T14:57:07.625Z,13.92
2023-03-19T14:58:47.584Z,13.93
2023-03-19T15:00:27.160Z,13.91
2023-03-19T15:02:06.921Z,13.93
2023-03-19T15:03:46.711Z,13.92
2023-03-19T15:05:26.480Z,14
2023-03-19T15:07:06.297Z,14
2023-03-19T15:08:46.026Z,14.01
2023-03-19T15:10:25.742Z,13.89
2023-03-19T15:12:05.519Z,13.99
2023-03-19T15:13:45.273Z,14.03
2023-03-19T15:15:25.030Z,14.03
2023-03-19T15:17:04.826Z,13.93
2023-03-19T15:18:44.568Z,14.01
2023-03-19T15:20:24.340Z,13.93
2023-03-19T15:22:04.103Z,14.02
2023-03-19T15:23:43.867Z,14
2023-03-19T15:25:23.633Z,13.99
2023-03-19T15:27:03.398Z,13.98
2023-03-19T15:28:43.157Z,13.96
2023-03-19T15:30:22.922Z,14.06
2023-03-19T15:32:02.735Z,14.02
2023-03-19T15:33:42.484Z,14.04
2023-03-19T15:35:22.238Z,13.92
2023-03-19T15:37:02.033Z,14
2023-03-19T15:38:41.794Z,14.04
2023-03-19T15:40:21.488Z,13.96
2023-03-19T15:42:01.268Z,13.99
2023-03-19T15:43:41.016Z,13.99
2023-03-19T15:45:20.804Z,13.94
2023-03-19T15:47:00.554Z,13.97
2023-03-19T15:48:40.323Z,14.05
2023-03-19T15:50:20.079Z,13.95
2023-03-19T15:51:59.864Z,13.95
2023-03-19T15:53:39.615Z,14.02
2023-03-19T15:55:19.367Z,13.94
2023-03-19T15:56:59.157Z,14
2023-03-19T15:58:38.912Z,14.03
2023-03-19T16:00:18.659Z,13.99
2023-03-19T16:01:58.468Z,13.99
2023-03-19T16:03:38.209Z,13.98
2023-03-19T16:05:17.974Z,13.95
2023-03-19T16:06:57.734Z,13.98
2023-03-19T16:08:37.509Z,13.95
2023-03-19T16:10:17.267Z,14
2023-03-19T16:11:57.038Z,14.01
2023-03-19T16:13:36.794Z,14
2023-03-19T16:15:16.570Z,14.01
2023-03-19T16:16:56.328Z,14.06
2023-03-19T16:18:36.096Z,14
2023-03-19T16:20:15.838Z,14.05
2023-03-19T16:21:55.607Z,13.94
2023-03-19T16:23:35.375Z,13.97
2023-03-19T16:25:15.141Z,13.92
2023-03-19T16:26:54.914Z,13.95
2023-03-19T16:28:34.661Z,13.92
2023-03-19T16:30:14.413Z,14.04
2023-03-19T16:31:54.209Z,13.91
2023-03-19T16:33:33.953Z,13.93
2023-03-19T16:35:13.711Z,13.94
2023-03-19T16:36:53.479Z,14.01
2023-03-19T16:38:33.249Z,13.97
2023-03-19T16:40:13.010Z,13.99
2023-03-19T16:41:52.777Z,14.02
2023-03-19T16:43:32.549Z,13.99
2023-03-19T16:45:12.291Z,13.98
2023-03-19T16:46:52.062Z,14.07
2023-03-19T16:48:31.832Z,14.05
2023-03-19T16:50:11.605Z,13.98
2023-03-19T16:51:51.422Z,13.95
2023-03-19T16:53:31.121Z,13.87
2023-03-19T16:55:10.879Z,13.45
2023-03-19T16:56:50.643Z,13.38
2023-03-19T16:58:30.430Z,13.34
2023-03-19T17:00:10.174Z,13.32
2023-03-19T17:01:49.943Z,13.27
2023-03-19T17:03:29.693Z,13.26
2023-03-19T17:05:09.465Z,13.26
2023-03-19T17:06:49.236Z,13.25
2023-03-19T17:08:28.989Z,13.23
2023-03-19T17:10:08.746Z,13.21
2023-03-19T17:11:48.517Z,13.19
2023-03-19T17:13:28.291Z,13.17
2023-03-19T17:15:08.060Z,13.17
2023-03-19T17:16:47.810Z,13.17
2023-03-19T17:18:27.575Z,13.15
2023-03-19T17:20:07.342Z,13.15
2023-03-19T17:21:47.102Z,13.15
2023-03-19T17:23:26.874Z,13.15
2023-03-19T17:25:06.615Z,13.12
2023-03-19T17:26:46.394Z,13.14
2023-03-19T17:28:26.168Z,13.12
2023-03-19T17:30:05.924Z,13.12
2023-03-19T17:31:45.675Z,13.13
2023-03-19T17:33:25.445Z,13.13
2023-03-19T17:35:05.220Z,13.12
2023-03-19T17:36:44.960Z,13.12
2023-03-19T17:38:24.747Z,13.12
2023-03-19T17:40:04.494Z,13.1
2023-03-19T17:41:44.271Z,13.1
2023-03-19T17:43:24.228Z,13.1
2023-03-19T17:45:03.890Z,13.1
2023-03-19T17:46:43.553Z,13.1
2023-03-19T17:48:23.340Z,13.1
2023-03-19T17:50:03.101Z,13.1
2023-03-19T17:51:42.850Z,13.1
2023-03-19T17:53:22.630Z,13.1
2023-03-19T17:55:02.382Z,13.1
2023-03-19T17:56:42.142Z,13.09
2023-03-19T17:58:21.907Z,13.09
2023-03-19T18:00:01.674Z,13.09
2023-03-19T18:01:41.440Z,13.09
2023-03-19T18:03:21.200Z,13.09
2023-03-19T18:05:00.984Z,13.09
2023-03-19T18:06:40.744Z,13.09
2023-03-19T18:08:20.500Z,13.09
2023-03-19T18:10:00.270Z,13.07
2023-03-19T18:11:40.017Z,13.07
2023-03-19T18:13:19.790Z,13.08
2023-03-19T18:14:59.544Z,13.09
2023-03-19T18:16:39.318Z,13.08
2023-03-19T18:18:19.118Z,13.08
2023-03-19T18:19:58.853Z,13.08
2023-03-19T18:21:38.622Z,13.06
2023-03-19T18:23:18.424Z,13.08
2023-03-19T18:24:58.137Z,13.08
2023-03-19T18:26:38.019Z,13.06
2023-03-19T18:28:17.667Z,13.08
2023-03-19T18:29:57.433Z,13.06
2023-03-19T18:31:37.199Z,13.06
2023-03-19T18:33:16.969Z,13.07
2023-03-19T18:34:56.724Z,13.07
2023-03-19T18:36:36.545Z,13.07
2023-03-19T18:38:16.260Z,13.07
2023-03-19T18:39:56.026Z,13.05
2023-03-19T18:41:35.768Z,13.07
2023-03-19T18:43:15.538Z,13.06
2023-03-19T18:44:55.299Z,13.06
2023-03-19T18:46:35.061Z,13.06
2023-03-19T18:48:14.858Z,13.06
2023-03-19T18:49:54.600Z,13.06
2023-03-19T18:51:34.352Z,13.06
2023-03-19T18:53:14.137Z,13.06
2023-03-19T18:54:53.878Z,13.06
2023-03-19T18:56:33.657Z,13.06
2023-03-19T18:58:13.408Z,13.06
2023-03-19T18:59:53.180Z,13.06
2023-03-19T19:01:32.946Z,13.06
2023-03-19T19:03:12.724Z,13.05
2023-03-19T19:04:52.481Z,13.05
2023-03-19T19:06:32.239Z,13.05
2023-03-19T19:08:11.997Z,13.05
2023-03-19T19:09:51.746Z,13.05
2023-03-19T19:11:31.526Z,13.05
2023-03-19T19:13:11.348Z,13.05
2023-03-19T19:14:51.085Z,13.05
2023-03-19T19:16:30.813Z,13.05
2023-03-19T19:18:10.579Z,13.05
2023-03-19T19:19:50.334Z,13.05
2023-03-19T19:21:30.105Z,13.06
2023-03-19T19:23:09.852Z,13.05
2023-03-19T19:24:49.636Z,13.05
2023-03-19T19:26:29.390Z,13.04
2023-03-19T19:28:09.156Z,13.04
2023-03-19T19:29:48.946Z,13.04
2023-03-19T19:31:28.692Z,13.04
2023-03-19T19:33:08.444Z,13.04
2023-03-19T19:34:48.207Z,13.04
2023-03-19T19:36:28.016Z,13.04
2023-03-19T19:38:07.750Z,13.04
2023-03-19T19:39:47.549Z,13.04
2023-03-19T19:41:27.287Z,13.04
2023-03-19T19:43:07.046Z,13.04
2023-03-19T19:44:46.788Z,13.04
2023-03-19T19:46:26.564Z,13.05
2023-03-19T19:48:06.389Z,13.04
2023-03-19T19:49:46.091Z,13.04
2023-03-19T19:51:25.870Z,13.04
2023-03-19T19:53:05.640Z,13.04
2023-03-19T19:54:45.405Z,13.04
2023-03-19T19:56:25.160Z,13.04
2023-03-19T19:58:04.917Z,13.04
2023-03-19T19:59:44.677Z,13.04
2023-03-19T20:01:24.454Z,13.04
2023-03-19T20:03:04.246Z,13.04
2023-03-19T20:04:43.966Z,13.04
2023-03-19T20:06:23.721Z,13.04
2023-03-19T20:08:03.639Z,13.03
2023-03-19T20:09:43.266Z,13.03
2023-03-19T20:11:23.163Z,13.03
2023-03-19T20:13:02.813Z,13.03
2023-03-19T20:14:42.552Z,13.03
2023-03-19T20:16:22.324Z,13.03
2023-03-19T20:18:02.091Z,13.03
2023-03-19T20:19:41.852Z,13.03
2023-03-19T20:21:21.622Z,13.03
2023-03-19T20:23:01.381Z,13.03
2023-03-19T20:24:41.142Z,13.03
2023-03-19T20:26:20.910Z,13.03
2023-03-19T20:28:00.672Z,13.03
2023-03-19T20:29:40.432Z,13.03
2023-03-19T20:31:20.194Z,13.03
2023-03-19T20:32:59.965Z,13.03
2023-03-19T20:34:39.741Z,13.03
2023-03-19T20:36:19.494Z,13.02
2023-03-19T20:37:59.251Z,13.02
2023-03-19T20:39:38.992Z,13.03
2023-03-19T20:41:18.773Z,13.01
2023-03-19T20:42:58.530Z,13.03
2023-03-19T20:44:38.305Z,13.03
2023-03-19T20:46:18.068Z,13.03
2023-03-19T20:47:57.845Z,13.03
2023-03-19T20:49:37.618Z,13.02
2023-03-19T20:51:17.349Z,13.02
2023-03-19T20:52:57.271Z,13.02
2023-03-19T20:54:36.883Z,13.02
2023-03-19T20:56:16.647Z,13.02
2023-03-19T20:57:56.411Z,13.02
2023-03-19T20:59:36.173Z,13.01
2023-03-19T21:01:15.932Z,13.01
2023-03-19T21:02:55.687Z,13.01
2023-03-19T21:04:35.458Z,13.01
2023-03-19T21:06:15.330Z,13.01
2023-03-19T21:07:54.990Z,13.01
2023-03-19T21:09:34.753Z,13.01
2023-03-19T21:11:14.548Z,13.01
2023-03-19T21:12:54.295Z,13.01
2023-03-19T21:14:34.055Z,13.01
2023-03-19T21:16:13.806Z,13.01
2023-03-19T21:17:53.703Z,13.01
2023-03-19T21:19:33.336Z,13.01
2023-03-19T21:21:13.094Z,13.01
2023-03-19T21:22:52.870Z,13.01
2023-03-19T21:24:32.639Z,13.01
2023-03-19T21:26:12.385Z,13.01
2023-03-19T21:27:52.249Z,13.01
2023-03-19T21:29:31.954Z,13.01
2023-03-19T21:31:11.684Z,13.01